Mountain Home, ID

12:05 PM MDT on October 20, 2014 (GMT -0600)
Mountain Home Air Force Base | Change Station
CLOSE
Current Station
Airport
Location: Mountain Home,
Elevation: 2995 ft
Nearby Weather Stations

Elev 2995 ft 43.04 °N, 115.87 °W | Updated 7 minutes ago

Clear
Clear
70 °F
Feels Like 70 °F
N
18
Wind Variable Wind from ESE

Today
High -- | Low -- °F
--% Chance of Precip.
Yesterday
High -- | Low -- °F
Precip. -- in
8:02 AM 6:51 PM
Waning Crescent, 10% visible
Pressure 29.83 in
Visibility 10.0 miles
Clouds Few 300 ft
Dew Point 34 °F
Humidity 27%
Rainfall 0.00 in
Snow Depth 0 in
UV 3 out of 12
Pollen 4.00 out of 12
Ozone Good
PM2.5 Good
Flu Activity Sporadic
METAR KMUO 201758Z AUTO 11016KT 10SM FEW003 21/01 A2987 RMK AO2 SLP099 T02100013 10210 20115 58005

More Conditions Fewer Conditions

Pressure 29.83 in
Visibility 10.0 miles
Clouds Few 300 ft
Dew Point 34 °F
Humidity 27%
Rainfall 0.00 in
Snow Depth 0 in
UV 3 out of 12
Pollen 4.00 out of 12
Ozone Good
PM2.5 Good
Flu Activity Sporadic
METAR KMUO 201758Z AUTO 11016KT 10SM FEW003 21/01 A2987 RMK AO2 SLP099 T02100013 10210 20115 58005

More Conditions Fewer Conditions

10-Day Weather Forecast

Almanac

Astronomy

Oct. 20, 2014 Rise Set
Actual Time 8:02 AM MDT 6:51 PM MDT
Civil Twilight 7:33 AM MDT 7:20 PM MDT
Nautical Twilight 7:00 AM MDT 7:53 PM MDT
Astronomical Twilight 6:27 AM MDT 8:26 PM MDT
Moon 4:50 AM MDT 5:20 PM MDT
Length of Visible Light 11h 46m
Length of Day
10h 49m
Waning Crescent, 10% of the Moon is Illuminated
Today
Waning Crescent
Oct 23
New
Oct 30
First Quarter
Nov 6
Full
Nov 14
Last Quarter

Today's Extremes

State Highs State Lows

Community

WunderPhotos

Upload Photos

1,763,455 photos uploaded!

Nearby

Air Quality

  Air Quality AQ Index Pollutant
Yesterday Good
PM10
Yesterday Good
OZONE
Current Good
PM2.5
Current Good
OZONE
Monday Good
OZONE
Tuesday Good
OZONE

Snow Depth

Station Depth Elevation
Camas Creek Divide 0 in 5710 ft
Trinity Mountain 0 in 7770 ft
Bogus Basin 0 in 6340 ft
Atlanta Summit 0 in 7580 ft
Mud Flat 1 in 5730 ft

Earthquake Activity

City Distance Mag. Time & Date
No recent earthquake activity has been reported nearby.
Minimum magnitude displayed is 2.5.

Coastal Water Temperatures

Place Temperature
No Stations Reporting

Nearby Weather Stations